»·PEaware :: N35CF KLAX-KNZY

N35CF :: KLAX-KNZY

FLIGHT INFORMATION

Flight Status: Arrived
Operator: Privately registered:
United States
More flights under this callsign
Pilot: Anonymous 18613 (18613)
Aircraft: BEECH AIRCRAFT A90-E90 KING AIR
(BE9L)
More flights by this aircraft type
Origin: KLAX Los Angeles Intl
United States
Destination: KNZY North Island NAS
United States
More flights between these airports :: More routes between these airports
Route: +SLI8 SLI SLI171 ALBAS V25 PACIF V208 LAX118 CARDI MZB320 MZB
File this flight plan on PilotEdge
Remarks:
Altitude:
(Current/Filed)
4,000ft
Speed:
(Current/Filed)
220kts
Departed: 04-Dec-18 04:34 PM
Arrived: 04-Dec-18 05:12 PM
Distance/Time
Traveled:
96nm/0:37
Distance/Time
To Go:
Arrived

Flight Plot

Page will automatically refresh every two minutes.

Flight plan parsing failed; only flown route is shown


Map Options




Map Legend


Flown Route
Filed Route
Departure Airport
Arrival Airport
Navaid (VOR, NDB)
Fix

Horizontal Profiles

Position Reports

Time Latitude Longitude Heading Altitude Ground
Speed
04-Dec-18 16:02 33.933721 -118.394269 89 103ft 0kts
04-Dec-18 16:02 33.933721 -118.394269 89 103ft 0kts
04-Dec-18 16:03 33.933721 -118.394269 89 103ft 0kts
04-Dec-18 16:05 33.933721 -118.394269 89 103ft 0kts
04-Dec-18 16:05 33.933721 -118.394269 89 103ft 0kts
04-Dec-18 16:06 33.933721 -118.394269 89 103ft 0kts
04-Dec-18 16:07 33.933721 -118.394269 89 103ft 0kts
04-Dec-18 16:08 33.933721 -118.394269 89 103ft 0kts
04-Dec-18 16:09 33.933721 -118.394269 89 103ft 0kts
04-Dec-18 16:10 33.933721 -118.394269 89 103ft 0kts
04-Dec-18 16:11 33.933721 -118.394269 89 103ft 0kts
04-Dec-18 16:12 33.933721 -118.394269 89 103ft 0kts
04-Dec-18 16:13 33.933721 -118.394269 89 103ft 0kts
04-Dec-18 16:14 33.933721 -118.394269 89 103ft 0kts
04-Dec-18 16:15 33.933721 -118.394269 89 103ft 0kts
04-Dec-18 16:16 33.933721 -118.394269 89 103ft 0kts
04-Dec-18 16:17 33.933721 -118.394269 89 103ft 0kts
04-Dec-18 16:18 33.933721 -118.394269 89 103ft 0kts
04-Dec-18 16:19 33.933721 -118.394269 89 103ft 0kts
04-Dec-18 16:20 33.933721 -118.394269 89 103ft 0kts
04-Dec-18 16:21 33.933721 -118.394269 89 103ft 0kts
04-Dec-18 16:22 33.933721 -118.394269 89 103ft 0kts
04-Dec-18 16:23 33.933721 -118.394269 89 103ft 0kts
04-Dec-18 16:24 33.933721 -118.394269 89 103ft 0kts
04-Dec-18 16:25 33.933721 -118.394269 89 103ft 0kts
04-Dec-18 16:26 33.933727 -118.394227 79 103ft 1kts
04-Dec-18 16:27 33.934165 -118.393870 355 102ft 0kts
04-Dec-18 16:28 33.935092 -118.392870 83 101ft 11kts
04-Dec-18 16:29 33.935598 -118.387938 83 98ft 18kts
04-Dec-18 16:30 33.936428 -118.382780 8 95ft 0kts
04-Dec-18 16:31 33.936506 -118.382771 4 95ft 0kts
04-Dec-18 16:32 33.937312 -118.383200 266 95ft 0kts
04-Dec-18 16:33 33.933899 -118.416686 264 878ft 158kts
04-Dec-18 16:34 33.918059 -118.466950 216 2537ft 180kts
04-Dec-18 16:35 33.875689 -118.482963 156 4423ft 174kts
04-Dec-18 16:36 33.839391 -118.443004 140 6109ft 169kts
04-Dec-18 16:37 33.807996 -118.405749 140 8099ft 151kts
04-Dec-18 16:38 33.776407 -118.369219 140 9014ft 186kts
04-Dec-18 16:39 33.735786 -118.322766 140 9011ft 211kts
04-Dec-18 16:40 33.692796 -118.273557 140 9008ft 215kts
04-Dec-18 16:41 33.649568 -118.223590 140 9006ft 217kts
04-Dec-18 16:42 33.605967 -118.172699 140 9004ft 219kts
04-Dec-18 16:43 33.562432 -118.121411 140 9002ft 220kts
04-Dec-18 16:44 33.518759 -118.069534 140 9000ft 222kts
04-Dec-18 16:45 33.474886 -118.017269 140 8999ft 223kts
04-Dec-18 16:46 33.452383 -117.946225 112 8999ft 233kts
04-Dec-18 16:47 33.422749 -117.881986 147 9001ft 221kts
04-Dec-18 16:48 33.375235 -117.834840 143 8999ft 223kts
04-Dec-18 16:49 33.328475 -117.785301 143 9000ft 226kts
04-Dec-18 16:50 33.281271 -117.735433 143 9000ft 227kts
04-Dec-18 16:51 33.262408 -117.668498 84 9000ft 244kts
04-Dec-18 16:52 33.261720 -117.587811 97 9000ft 242kts
04-Dec-18 16:53 33.229205 -117.528280 147 8986ft 226kts
04-Dec-18 16:54 33.181938 -117.478633 140 8982ft 227kts
04-Dec-18 16:55 33.137256 -117.425204 138 8978ft 227kts
04-Dec-18 16:56 33.084393 -117.388181 160 8672ft 223kts
04-Dec-18 16:57 33.029545 -117.358562 159 7799ft 211kts
04-Dec-18 16:58 32.972678 -117.352202 191 6000ft 218kts
04-Dec-18 16:59 32.914539 -117.362760 190 4970ft 193kts
04-Dec-18 17:00 32.866260 -117.370252 190 4973ft 173kts
04-Dec-18 17:01 32.813469 -117.378766 190 3100ft 198kts
04-Dec-18 17:02 32.771855 -117.372795 133 2182ft 131kts
04-Dec-18 17:03 32.742422 -117.388465 224 2514ft 118kts
04-Dec-18 17:04 32.764831 -117.401760 15 2051ft 132kts
04-Dec-18 17:05 32.776314 -117.365664 104 1849ft 145kts
04-Dec-18 17:06 32.765791 -117.319432 107 1746ft 146kts
04-Dec-18 17:07 32.755515 -117.276494 108 1177ft 124kts
04-Dec-18 17:08 32.744450 -117.233549 108 891ft 143kts
04-Dec-18 17:09 32.726133 -117.206232 198 372ft 120kts
04-Dec-18 17:10 32.698307 -117.215543 196 16ft 61kts
04-Dec-18 17:11 32.693906 -117.215380 282 13ft 0kts
04-Dec-18 17:12 32.693906 -117.215380 282 13ft 0kts
04-Dec-18 17:13 32.693906 -117.215380 282 13ft 0kts

Navigation Log

Ident Type
Flight plan parsing failed, navigation log unavailable